Time;durP1;ratioP1;P1;durP2;ratioP2;P2;SDS_P1;SDS_P2;PMS_P1;PMS_P2;Temp;Humidity;BMP_temperature;BMP_pressure;BME280_temperature;BME280_humidity;BME280_pressure;Samples;Min_cycle;Max_cycle;Signal;HPM_P1;HPM_P2
2022/05/30 03:01:14;;;;;;;1.33;0.63;;;22.10;41.30;;;;;;5542947;23;45775;-60
2022/05/30 03:04:01;;;;;;;1.65;0.50;;;22.10;41.40;;;;;;4890040;28;47381;-60
2022/05/30 03:06:29;;;;;;;0.93;0.70;;;22.10;41.30;;;;;;4926525;28;45140;-60
2022/05/30 03:09:14;;;;;;;1.05;0.70;;;22.10;41.30;;;;;;4922531;28;45069;-60
2022/05/30 03:12:00;;;;;;;1.40;0.60;;;22.10;41.30;;;;;;4926115;28;45367;-60
2022/05/30 03:14:41;;;;;;;0.70;0.55;;;22.10;41.30;;;;;;4916398;28;46061;-59
2022/05/30 03:17:27;;;;;;;1.60;0.80;;;22.10;41.30;;;;;;4919917;28;44985;-58
2022/05/30 03:20:12;;;;;;;0.80;0.40;;;22.00;41.30;;;;;;4920116;28;45118;-59
2022/05/30 03:22:58;;;;;;;1.00;0.50;;;22.00;41.30;;;;;;4909864;28;45179;-61
2022/05/30 03:25:44;;;;;;;1.02;0.70;;;22.00;41.30;;;;;;4918616;28;46814;-60
2022/05/30 03:28:31;;;;;;;1.10;0.60;;;22.00;41.30;;;;;;4908498;28;45092;-60
2022/05/30 03:31:16;;;;;;;1.20;0.68;;;22.00;41.40;;;;;;4922163;28;45242;-60
2022/05/30 03:34:02;;;;;;;1.00;0.90;;;22.00;41.40;;;;;;4924403;28;44985;-60
2022/05/30 03:36:47;;;;;;;0.47;0.47;;;22.00;41.40;;;;;;4912107;28;45041;-59
2022/05/30 03:39:33;;;;;;;1.20;0.63;;;22.00;41.30;;;;;;4906797;28;45135;-57
2022/05/30 03:42:18;;;;;;;1.25;0.68;;;22.00;41.30;;;;;;4901632;28;45081;-59
2022/05/30 03:45:05;;;;;;;1.63;0.63;;;22.00;41.30;;;;;;4926423;28;45195;-57
2022/05/30 03:47:51;;;;;;;0.95;0.55;;;22.00;41.40;;;;;;4922007;28;46684;-59
2022/05/30 03:50:38;;;;;;;0.95;0.60;;;22.00;41.40;;;;;;4918998;28;44958;-59
2022/05/30 03:53:23;;;;;;;0.95;0.70;;;22.00;41.40;;;;;;4935926;28;45329;-58
2022/05/30 03:56:09;;;;;;;1.75;0.82;;;22.00;41.40;;;;;;4925356;28;45575;-60
2022/05/30 03:58:54;;;;;;;0.93;0.70;;;22.00;41.40;;;;;;4925757;28;45538;-60
2022/05/30 04:01:40;;;;;;;0.63;0.63;;;21.90;41.40;;;;;;4913887;28;45296;-59
2022/05/30 04:04:25;;;;;;;1.45;0.70;;;21.90;41.40;;;;;;4921127;28;45237;-59
2022/05/30 04:06:52;;;;;;;0.63;0.50;;;22.00;41.50;;;;;;4919062;28;45020;-58
2022/05/30 04:09:38;;;;;;;0.93;0.63;;;21.90;41.50;;;;;;4922717;28;45522;-61
2022/05/30 04:12:23;;;;;;;1.10;0.80;;;21.90;41.50;;;;;;4926455;28;45240;-59
2022/05/30 04:15:14;;;;;;;0.98;0.70;;;21.90;41.50;;;;;;4925424;28;45111;-60
2022/05/30 04:18:00;;;;;;;5.47;0.85;;;21.90;41.50;;;;;;4903460;28;45398;-60
2022/05/30 04:20:26;;;;;;;3.22;0.60;;;21.90;41.50;;;;;;4931805;28;46507;-58
2022/05/30 04:23:12;;;;;;;1.05;0.70;;;21.90;41.50;;;;;;4920165;28;45207;-58
2022/05/30 04:25:57;;;;;;;0.85;0.63;;;21.90;41.60;;;;;;4925519;28;45022;-59
2022/05/30 04:28:43;;;;;;;1.13;0.73;;;21.90;41.60;;;;;;4925036;28;45205;-59
2022/05/30 04:31:28;;;;;;;0.98;0.70;;;21.90;41.60;;;;;;4920294;28;46846;-59
2022/05/30 04:34:14;;;;;;;1.85;0.65;;;21.90;41.60;;;;;;4937523;28;45111;-59
2022/05/30 04:37:00;;;;;;;1.45;0.65;;;21.90;41.70;;;;;;4918286;28;45843;-60
2022/05/30 04:39:45;;;;;;;1.45;0.90;;;21.90;41.70;;;;;;4913398;28;45289;-61
2022/05/30 04:42:18;;;;;;;;;;;21.90;41.70;;;;;;4918631;28;46451;-58
2022/05/30 04:45:04;;;;;;;1.30;0.70;;;21.80;41.80;;;;;;4941441;28;45896;-59
2022/05/30 04:47:50;;;;;;;1.00;0.82;;;21.80;41.70;;;;;;4926724;28;45088;-60
2022/05/30 04:50:35;;;;;;;1.38;1.02;;;21.90;41.80;;;;;;4926056;28;45318;-61
2022/05/30 04:53:21;;;;;;;1.00;0.90;;;21.80;41.80;;;;;;4930891;28;46900;-60
2022/05/30 04:56:06;;;;;;;0.98;0.60;;;21.80;41.80;;;;;;4920248;28;44879;-59
2022/05/30 04:58:52;;;;;;;1.60;0.80;;;21.80;41.80;;;;;;4921725;28;45361;-59
2022/05/30 05:01:18;;;;;;;1.90;1.20;;;21.80;41.80;;;;;;4935290;28;45291;-60
2022/05/30 05:03:47;;;;;;;1.02;0.88;;;21.90;41.90;;;;;;4938692;28;45992;-59
2022/05/30 05:06:18;;;;;;;1.95;0.88;;;21.80;41.80;;;;;;4923254;28;45512;-58
2022/05/30 05:08:55;;;;;;;0.93;0.60;;;21.90;42.00;;;;;;4923117;28;45022;-58
2022/05/30 05:11:29;;;;;;;0.95;0.88;;;21.90;42.00;;;;;;4925978;28;45451;-57
2022/05/30 05:13:56;;;;;;;1.20;0.70;;;21.90;42.00;;;;;;4941192;28;45088;-60
2022/05/30 05:16:27;;;;;;;2.33;1.23;;;21.80;41.90;;;;;;4944460;28;45054;-59
2022/05/30 05:18:53;;;;;;;1.10;0.88;;;21.80;41.90;;;;;;4941836;28;44788;-60
2022/05/30 05:21:25;;;;;;;0.80;0.68;;;21.80;41.90;;;;;;4940418;28;45113;-60
2022/05/30 05:23:50;;;;;;;1.75;0.88;;;21.80;42.00;;;;;;4940789;28;46019;-59
2022/05/30 05:26:16;;;;;;;0.93;0.82;;;21.90;42.00;;;;;;4939365;28;45117;-60
2022/05/30 05:28:42;;;;;;;1.50;0.80;;;21.90;42.00;;;;;;4939970;28;45185;-61
2022/05/30 05:31:08;;;;;;;0.85;0.80;;;21.90;42.00;;;;;;4939828;28;45030;-58
2022/05/30 05:33:34;;;;;;;1.13;0.95;;;21.80;42.00;;;;;;4925258;28;46446;-59
2022/05/30 05:36:00;;;;;;;1.52;0.93;;;21.90;42.10;;;;;;4941073;28;44987;-60
2022/05/30 05:38:25;;;;;;;1.08;0.90;;;21.90;42.10;;;;;;4942215;28;45099;-59
2022/05/30 05:40:52;;;;;;;1.20;0.80;;;21.90;42.10;;;;;;4941862;28;44879;-60
2022/05/30 05:43:18;;;;;;;1.52;1.02;;;21.90;42.10;;;;;;4943000;28;45049;-61
2022/05/30 05:45:46;;;;;;;1.58;0.93;;;21.90;42.10;;;;;;4939423;28;45117;-60
2022/05/30 05:48:11;;;;;;;1.83;0.95;;;21.90;42.10;;;;;;4940977;28;44948;-60
2022/05/30 05:50:38;;;;;;;0.77;0.77;;;21.90;42.20;;;;;;4940304;28;45348;-60
2022/05/30 05:53:04;;;;;;;1.20;1.08;;;21.80;42.10;;;;;;4939865;28;45874;-59
2022/05/30 05:55:30;;;;;;;0.90;0.80;;;21.90;42.20;;;;;;4937350;28;45349;-59
2022/05/30 05:57:56;;;;;;;1.05;0.93;;;21.80;42.10;;;;;;4945406;28;44951;-60
2022/05/30 06:00:21;;;;;;;3.78;1.05;;;21.90;42.20;;;;;;4945176;28;44921;-64
2022/05/30 06:02:47;;;;;;;0.82;0.80;;;21.90;42.80;;;;;;4928966;28;45399;-64
2022/05/30 06:05:13;;;;;;;1.38;0.82;;;21.90;42.20;;;;;;4950290;28;44999;-59
2022/05/30 06:07:40;;;;;;;1.10;0.82;;;21.90;42.20;;;;;;4945804;28;44726;-62
2022/05/30 06:10:07;;;;;;;1.70;0.88;;;21.90;42.20;;;;;;4940914;28;45112;-64
2022/05/30 06:12:42;;;;;;;1.02;0.82;;;21.90;42.20;;;;;;4947328;28;46394;-64
2022/05/30 06:15:15;;;;;;;1.30;0.80;;;22.00;42.30;;;;;;4949865;28;44772;-68
2022/05/30 06:17:41;;;;;;;;;;;22.00;42.20;;;;;;4929937;28;45055;-67
2022/05/30 06:20:09;;;;;;;1.30;0.88;;;22.00;42.40;;;;;;4947023;28;45527;-67
2022/05/30 06:22:34;;;;;;;1.15;0.85;;;22.00;42.20;;;;;;4944205;28;46187;-69
2022/05/30 06:25:00;;;;;;;1.15;0.70;;;22.00;42.20;;;;;;4939527;28;45237;-70
2022/05/30 06:27:26;;;;;;;1.83;0.80;;;22.00;42.20;;;;;;4950234;28;44693;-64
2022/05/30 06:29:51;;;;;;;2.00;0.98;;;22.00;42.20;;;;;;4947263;28;45458;-66
2022/05/30 06:32:17;;;;;;;1.30;0.90;;;22.00;42.30;;;;;;4947260;28;46228;-66
2022/05/30 06:34:43;;;;;;;2.53;0.70;;;22.10;42.30;;;;;;4948656;28;44999;-63
2022/05/30 06:37:10;;;;;;;1.20;0.88;;;22.10;42.30;;;;;;4936146;28;45056;-61
2022/05/30 06:39:36;;;;;;;1.00;0.85;;;22.10;42.20;;;;;;4948414;28;44945;-63
2022/05/30 06:42:02;;;;;;;1.40;1.13;;;22.10;42.20;;;;;;4929457;28;46324;-65
2022/05/30 06:44:28;;;;;;;1.55;1.00;;;22.10;42.80;;;;;;4934362;28;45255;-64
2022/05/30 06:46:53;;;;;;;1.25;0.88;;;22.20;42.20;;;;;;4948509;28;44845;-63
2022/05/30 06:49:19;;;;;;;3.70;1.10;;;22.20;42.20;;;;;;4949060;28;44915;-64
2022/05/30 06:51:44;;;;;;;0.88;0.88;;;22.20;42.20;;;;;;4947971;28;45194;-60
2022/05/30 06:54:10;;;;;;;1.80;1.08;;;22.20;42.30;;;;;;4944082;28;44915;-70
2022/05/30 06:56:39;;;;;;;0.70;0.70;;;22.20;42.20;;;;;;4948953;28;44950;-67
2022/05/30 06:59:05;;;;;;;2.17;1.10;;;22.20;42.20;;;;;;4943618;28;45235;-66
2022/05/30 07:01:33;;;;;;;0.98;0.80;;;22.20;42.20;;;;;;4948337;28;46247;-63
2022/05/30 07:03:58;;;;;;;3.08;0.90;;;22.30;42.30;;;;;;4926880;28;45257;-65
2022/05/30 07:06:29;;;;;;;1.25;1.00;;;22.20;42.20;;;;;;4948904;28;44810;-62
2022/05/30 07:08:55;;;;;;;1.65;0.90;;;22.30;42.30;;;;;;4948279;28;44952;-68
2022/05/30 07:11:21;;;;;;;1.42;0.93;;;22.30;42.30;;;;;;4943469;28;45546;-61
2022/05/30 07:13:47;;;;;;;2.70;0.88;;;22.30;42.30;;;;;;4944929;28;44875;-65
2022/05/30 07:16:13;;;;;;;5.18;0.77;;;22.30;42.30;;;;;;4945829;28;44859;-63
2022/05/30 07:18:45;;;;;;;1.50;0.90;;;22.30;42.30;;;;;;4948253;28;44787;-63
2022/05/30 07:21:13;;;;;;;1.70;0.90;;;22.30;42.30;;;;;;4931095;28;45921;-66
2022/05/30 07:23:38;;;;;;;3.25;0.90;;;22.40;42.30;;;;;;4942526;28;44915;-65
2022/05/30 07:26:09;;;;;;;1.02;0.93;;;22.40;42.30;;;;;;4940609;28;45002;-66
2022/05/30 07:28:35;;;;;;;2.97;0.90;;;22.40;42.20;;;;;;4952562;28;45099;-63
2022/05/30 07:31:04;;;;;;;4.70;0.88;;;22.40;42.20;;;;;;4949437;28;45440;-66
2022/05/30 07:33:30;;;;;;;4.13;0.88;;;22.50;42.30;;;;;;4950939;28;44956;-61
2022/05/30 07:35:56;;;;;;;4.93;0.90;;;22.40;42.20;;;;;;4950074;28;45587;-65
2022/05/30 07:38:22;;;;;;;1.00;0.70;;;22.50;42.30;;;;;;4946733;28;45000;-62
2022/05/30 07:40:47;;;;;;;1.00;0.80;;;22.50;42.20;;;;;;4948113;28;45071;-63
2022/05/30 07:43:14;;;;;;;3.78;0.80;;;22.60;42.20;;;;;;4947802;28;45141;-65
2022/05/30 07:45:40;;;;;;;1.60;1.00;;;22.60;42.20;;;;;;4952045;28;44939;-67
2022/05/30 07:48:06;;;;;;;2.22;0.90;;;22.60;42.10;;;;;;4950294;28;45202;-63
2022/05/30 07:50:34;;;;;;;3.72;1.15;;;22.60;42.10;;;;;;4948365;28;45043;-67
2022/05/30 07:52:59;;;;;;;1.20;1.00;;;22.70;42.20;;;;;;4951970;28;44689;-65
2022/05/30 07:55:25;;;;;;;1.83;0.82;;;22.70;42.10;;;;;;4952420;28;45124;-62
2022/05/30 07:57:50;;;;;;;3.47;1.00;;;22.70;42.10;;;;;;4951690;28;45258;-65
2022/05/30 08:00:17;;;;;;;4.13;1.10;;;22.70;42.00;;;;;;4950111;28;46119;-64
2022/05/30 08:02:42;;;;;;;0.75;0.70;;;22.80;42.10;;;;;;4947617;28;45116;-66
2022/05/30 08:05:10;;;;;;;4.93;0.90;;;22.80;42.00;;;;;;4944731;28;46424;-64
2022/05/30 08:07:35;;;;;;;2.65;1.00;;;22.80;41.90;;;;;;4952370;28;45042;-66
2022/05/30 08:10:02;;;;;;;3.15;0.90;;;22.90;42.00;;;;;;4950754;28;46188;-64
2022/05/30 08:12:27;;;;;;;3.15;0.65;;;22.90;42.00;;;;;;4928375;28;45017;-63
2022/05/30 08:14:53;;;;;;;2.85;1.10;;;22.90;42.00;;;;;;4931850;28;45000;-62
2022/05/30 08:17:20;;;;;;;4.00;0.90;;;22.90;41.90;;;;;;4946400;28;45040;-62
2022/05/30 08:19:45;;;;;;;1.60;0.75;;;22.90;41.90;;;;;;4949925;28;44989;-64
2022/05/30 08:22:11;;;;;;;3.92;1.10;;;23.00;41.90;;;;;;4930501;28;45008;-63
2022/05/30 08:24:41;;;;;;;2.05;0.90;;;23.00;41.80;;;;;;4950508;28;45089;-66
2022/05/30 08:27:07;;;;;;;2.83;1.00;;;23.00;41.80;;;;;;4953244;28;45132;-67
2022/05/30 08:29:33;;;;;;;4.45;1.10;;;23.10;41.90;;;;;;4950814;28;45758;-64
2022/05/30 08:31:58;;;;;;;1.27;0.70;;;23.10;41.80;;;;;;4951365;28;44867;-63
2022/05/30 08:34:24;;;;;;;3.45;0.95;;;23.10;41.80;;;;;;4930637;28;45051;-61
2022/05/30 08:36:50;;;;;;;3.30;1.15;;;23.10;41.80;;;;;;4949174;28;45000;-64
2022/05/30 08:42:00;;;;;;;3.88;1.13;;;23.20;41.80;;;;;;4949888;28;45037;-67
2022/05/30 08:44:29;;;;;;;3.83;1.02;;;23.20;41.80;;;;;;4935082;28;44765;-63
2022/05/30 08:47:06;;;;;;;2.28;0.75;;;23.20;41.80;;;;;;4939884;28;45011;-62
2022/05/30 08:49:42;;;;;;;1.98;1.25;;;23.20;41.70;;;;;;4934487;28;45901;-62
2022/05/30 08:52:12;;;;;;;2.90;1.00;;;23.20;41.70;;;;;;4927114;28;45015;-65
2022/05/30 08:55:02;;;;;;;2.80;0.93;;;23.20;41.70;;;;;;4929006;28;46830;-65
2022/05/30 08:57:44;;;;;;;2.13;0.70;;;23.30;41.80;;;;;;4946876;28;44943;-65
2022/05/30 09:00:30;;;;;;;3.80;0.80;;;23.30;41.70;;;;;;4933743;28;45970;-65
2022/05/30 09:03:30;;;;;;;2.53;1.10;;;23.30;41.70;;;;;;4926274;28;45025;-64
2022/05/30 09:05:59;;;;;;;1.90;0.90;;;23.30;41.70;;;;;;4928593;28;44783;-66
2022/05/30 09:08:33;;;;;;;2.45;0.70;;;23.40;41.70;;;;;;4939282;28;45056;-62
2022/05/30 09:11:02;;;;;;;0.63;0.63;;;23.40;41.70;;;;;;4937837;28;46160;-61
2022/05/30 09:13:40;;;;;;;3.60;1.00;;;23.40;41.70;;;;;;4930222;28;44951;-68
2022/05/30 09:16:18;;;;;;;5.32;0.70;;;23.40;41.70;;;;;;4934181;28;44757;-66
2022/05/30 09:18:45;;;;;;;1.00;0.80;;;23.40;41.70;;;;;;4949669;28;45486;-62
2022/05/30 09:21:13;;;;;;;1.90;0.88;;;23.40;41.70;;;;;;4932553;28;46176;-67
2022/05/30 09:23:38;;;;;;;9.70;1.23;;;23.50;41.70;;;;;;4931680;28;45309;-64
2022/05/30 09:26:07;;;;;;;2.08;0.85;;;23.50;41.60;;;;;;4938576;28;45370;-64
2022/05/30 09:28:34;;;;;;;4.05;0.88;;;23.50;41.60;;;;;;4948752;28;44979;-63
2022/05/30 09:31:09;;;;;;;1.45;0.85;;;23.50;41.60;;;;;;4931174;28;46161;-63
2022/05/30 09:33:36;;;;;;;1.95;0.77;;;23.60;41.60;;;;;;4950061;28;44964;-63
2022/05/30 09:36:18;;;;;;;4.28;0.90;;;23.60;41.60;;;;;;4946581;28;44987;-66
2022/05/30 09:39:05;;;;;;;1.85;0.80;;;23.60;41.50;;;;;;4948499;28;45025;-63
2022/05/30 09:41:37;;;;;;;3.45;1.00;;;23.60;41.50;;;;;;4947104;28;44946;-66
2022/05/30 09:44:10;;;;;;;1.15;0.90;;;23.60;41.50;;;;;;4949242;28;44776;-66
2022/05/30 09:46:38;;;;;;;;;;;23.60;41.50;;;;;;4926072;28;44970;-73
2022/05/30 09:49:03;;;;;;;1.73;0.70;;;23.60;41.50;;;;;;4948521;28;45062;-68
2022/05/30 09:51:30;;;;;;;1.33;0.77;;;23.60;41.50;;;;;;4950182;28;45162;-64
2022/05/30 09:53:56;;;;;;;2.58;0.52;;;23.60;41.40;;;;;;4944167;28;45449;-65
2022/05/30 09:56:23;;;;;;;2.28;0.85;;;23.60;41.40;;;;;;4933058;28;45118;-67
2022/05/30 09:59:03;;;;;;;1.30;0.80;;;23.70;41.40;;;;;;4939654;28;45034;-66
2022/05/30 10:01:30;;;;;;;2.97;0.98;;;23.70;41.40;;;;;;4945457;28;45950;-63
2022/05/30 10:04:12;;;;;;;1.95;0.70;;;23.70;41.40;;;;;;4926623;28;44755;-65
2022/05/30 10:06:38;;;;;;;4.40;1.00;;;23.80;41.40;;;;;;4928154;28;45226;-64
2022/05/30 10:09:13;;;;;;;2.60;0.70;;;23.70;41.30;;;;;;4941536;28;44646;-66
2022/05/30 10:11:39;;;;;;;4.07;0.80;;;23.70;41.30;;;;;;4941768;28;45519;-65
2022/05/30 10:14:24;;;;;;;1.38;0.70;;;23.70;41.30;;;;;;4944343;28;44799;-65
2022/05/30 10:16:50;;;;;;;0.77;0.77;;;23.80;41.30;;;;;;4941760;28;44765;-68
2022/05/30 10:19:34;;;;;;;2.03;0.82;;;23.70;41.30;;;;;;4912515;28;45158;-64
2022/05/30 10:28:40;;;;;;;1.17;0.68;;;23.80;41.20;;;;;;4929040;28;45184;-63
2022/05/30 10:31:13;;;;;;;3.53;0.63;;;23.80;41.00;;;;;;4929147;28;45470;-65
2022/05/30 10:33:58;;;;;;;;;;;23.80;41.70;;;;;;4920862;28;47168;-65
2022/05/30 10:36:49;;;;;;;1.70;0.60;;;23.70;41.10;;;;;;4940549;28;45181;-67
2022/05/30 10:39:40;;;;;;;3.03;0.80;;;23.70;41.10;;;;;;4923239;28;44907;-65
2022/05/30 10:42:11;;;;;;;1.13;0.75;;;23.70;41.00;;;;;;4920663;28;45148;-64
2022/05/30 10:44:49;;;;;;;1.65;0.80;;;23.70;41.00;;;;;;4925524;28;46184;-67
2022/05/30 10:47:16;;;;;;;1.05;0.70;;;23.70;41.00;;;;;;4936537;28;44957;-66
2022/05/30 10:49:46;;;;;;;2.47;0.80;;;23.70;41.10;;;;;;4947818;28;45354;-65
2022/05/30 10:52:21;;;;;;;1.10;0.60;;;23.70;41.10;;;;;;4928074;28;44760;-64
2022/05/30 10:54:56;;;;;;;1.85;0.80;;;23.70;41.00;;;;;;4918603;28;45230;-66
2022/05/30 10:57:37;;;;;;;2.67;0.77;;;23.70;41.10;;;;;;4925540;28;45170;-65
2022/05/30 11:00:17;;;;;;;2.40;0.70;;;23.70;41.00;;;;;;4946212;28;45002;-63
2022/05/30 11:02:58;;;;;;;1.17;0.70;;;23.70;41.10;;;;;;4949263;28;45704;-63
2022/05/30 11:05:27;;;;;;;1.73;0.60;;;23.70;41.00;;;;;;4929274;28;46213;-63
2022/05/30 11:08:03;;;;;;;2.30;0.80;;;23.80;41.00;;;;;;4927590;28;46028;-63
2022/05/30 11:11:06;;;;;;;2.65;0.70;;;23.80;41.00;;;;;;4930023;28;45178;-63
2022/05/30 11:13:37;;;;;;;3.17;1.00;;;23.80;41.10;;;;;;4947050;28;44737;-63
2022/05/30 11:16:31;;;;;;;3.75;0.73;;;23.80;41.10;;;;;;4933119;28;45886;-63
2022/05/30 11:19:20;;;;;;;4.30;0.80;;;23.80;41.00;;;;;;4934493;28;45365;-63
2022/05/30 11:22:10;;;;;;;2.00;0.63;;;23.80;41.00;;;;;;4927326;28;44954;-62
2022/05/30 11:24:37;;;;;;;2.55;0.90;;;23.80;41.00;;;;;;4916693;28;44924;-62
2022/05/30 11:27:10;;;;;;;1.60;0.73;;;23.80;41.00;;;;;;4914979;28;44986;-63
2022/05/30 11:29:49;;;;;;;3.28;0.63;;;23.80;40.90;;;;;;4952407;28;45289;-61
2022/05/30 11:32:31;;;;;;;3.40;0.90;;;23.90;41.00;;;;;;4927066;28;44736;-63
2022/05/30 11:35:18;;;;;;;1.65;0.75;;;23.90;40.90;;;;;;4930811;28;46275;-61
2022/05/30 11:38:19;;;;;;;2.67;0.73;;;23.90;40.90;;;;;;4945256;28;45324;-61
2022/05/30 11:40:59;;;;;;;4.63;0.88;;;23.90;40.80;;;;;;4946109;28;45255;-63
2022/05/30 11:43:44;;;;;;;1.20;0.77;;;23.90;40.90;;;;;;4949750;28;45249;-63
2022/05/30 11:46:18;;;;;;;1.20;0.60;;;23.90;40.90;;;;;;4948415;28;45913;-63
2022/05/30 11:48:55;;;;;;;4.30;0.82;;;23.90;40.80;;;;;;4944777;28;46044;-63
2022/05/30 11:51:39;;;;;;;3.35;0.65;;;23.90;40.80;;;;;;4928458;28;45239;-64
2022/05/30 11:54:23;;;;;;;1.05;0.65;;;23.90;40.90;;;;;;4942987;28;45058;-63
2022/05/30 11:57:04;;;;;;;2.80;0.70;;;24.00;40.90;;;;;;4933563;28;45038;-64
2022/05/30 11:59:51;;;;;;;2.03;0.80;;;24.00;40.90;;;;;;4931101;28;44985;-65
2022/05/30 12:02:45;;;;;;;1.00;0.60;;;24.00;40.90;;;;;;4928934;28;44952;-63
2022/05/30 12:05:49;;;;;;;1.17;0.77;;;24.00;41.00;;;;;;4924587;28;45245;-64
2022/05/30 12:08:39;;;;;;;2.10;0.93;;;24.00;40.90;;;;;;4914615;28;45046;-65
2022/05/30 12:11:16;;;;;;;1.55;0.77;;;24.10;41.00;;;;;;4931128;28;47064;-65
2022/05/30 12:14:01;;;;;;;3.17;0.90;;;24.10;41.00;;;;;;4947327;28;45007;-63
2022/05/30 12:17:04;;;;;;;1.85;0.68;;;24.10;40.90;;;;;;4921803;28;45075;-63
2022/05/30 12:25:36;;;;;;;0.98;0.68;;;24.10;40.90;;;;;;4930748;28;45731;-64
2022/05/30 12:28:06;;;;;;;1.33;1.00;;;24.10;40.80;;;;;;4943977;28;45213;-63
2022/05/30 12:30:35;;;;;;;1.50;0.90;;;24.10;40.80;;;;;;4948269;28;45031;-64
2022/05/30 12:33:21;;;;;;;4.25;0.90;;;24.10;40.80;;;;;;4941016;28;45567;-62
2022/05/30 12:35:46;;;;;;;0.70;0.50;;;24.10;40.80;;;;;;4924087;28;45336;-64
2022/05/30 12:38:14;;;;;;;1.23;0.80;;;24.20;40.80;;;;;;4948348;28;44949;-63
2022/05/30 12:40:54;;;;;;;2.08;0.70;;;24.20;40.90;;;;;;4934759;28;45150;-68
2022/05/30 12:43:27;;;;;;;1.83;0.73;;;24.20;40.90;;;;;;4944842;28;45897;-65
2022/05/30 12:45:56;;;;;;;0.60;0.60;;;24.20;40.80;;;;;;4946736;28;44796;-64
2022/05/30 12:49:00;;;;;;;1.95;0.80;;;24.20;40.80;;;;;;4944790;28;45211;-61
2022/05/30 12:51:59;;;;;;;3.90;0.68;;;24.20;40.80;;;;;;4944913;28;45198;-63
2022/05/30 12:54:33;;;;;;;1.08;0.55;;;24.20;40.80;;;;;;4908350;28;46034;-64
2022/05/30 12:57:07;;;;;;;1.60;0.70;;;24.20;40.80;;;;;;4943872;28;45199;-66
2022/05/30 12:59:34;;;;;;;3.22;0.60;;;24.20;40.90;;;;;;4929281;28;44946;-62
2022/05/30 13:02:01;;;;;;;1.33;0.88;;;24.20;40.80;;;;;;4932003;28;45286;-64
2022/05/30 13:04:35;;;;;;;1.30;0.70;;;24.20;40.80;;;;;;4928089;28;46302;-61
2022/05/30 13:07:01;;;;;;;1.73;0.75;;;24.30;40.80;;;;;;4930947;28;45129;-68
2022/05/30 13:09:33;;;;;;;1.13;0.80;;;24.30;40.80;;;;;;4940896;28;44846;-64
2022/05/30 13:12:18;;;;;;;0.88;0.50;;;24.30;40.80;;;;;;4925913;28;44981;-64
2022/05/30 13:14:49;;;;;;;1.15;0.77;;;24.30;41.30;;;;;;4928190;28;45354;-61
2022/05/30 13:17:18;;;;;;;1.30;0.70;;;24.30;40.80;;;;;;4943784;28;45082;-62
2022/05/30 13:20:14;;;;;;;1.50;0.60;;;24.30;40.70;;;;;;4946773;28;45975;-61
2022/05/30 13:22:48;;;;;;;0.77;0.77;;;24.40;40.80;;;;;;4943057;28;45693;-64
2022/05/30 13:25:31;;;;;;;3.30;1.13;;;24.40;40.80;;;;;;4925752;28;46250;-67
2022/05/30 13:28:30;;;;;;;1.65;0.70;;;24.40;40.70;;;;;;4937611;28;44968;-64
2022/05/30 13:30:56;;;;;;;3.72;0.70;;;24.40;40.70;;;;;;4914726;28;45205;-65
2022/05/30 13:33:27;;;;;;;1.40;0.68;;;24.40;40.80;;;;;;4949230;28;44985;-65
2022/05/30 13:35:53;;;;;;;1.45;0.80;;;24.40;40.70;;;;;;4943500;28;46071;-61
2022/05/30 13:38:19;;;;;;;1.58;0.85;;;24.40;40.70;;;;;;4927162;28;44910;-63
2022/05/30 13:40:46;;;;;;;2.03;0.80;;;24.40;40.70;;;;;;4933343;28;45292;-64
2022/05/30 13:43:19;;;;;;;1.65;0.90;;;24.40;40.70;;;;;;4932663;28;45122;-62
2022/05/30 13:45:46;;;;;;;1.77;0.70;;;24.40;40.60;;;;;;4925205;28;46043;-60
2022/05/30 13:48:14;;;;;;;1.83;0.40;;;24.40;40.70;;;;;;4917382;28;45810;-62
2022/05/30 13:50:46;;;;;;;2.60;0.63;;;24.40;40.60;;;;;;4941758;28;44952;-59
2022/05/30 13:53:14;;;;;;;1.10;0.60;;;24.40;40.60;;;;;;4931742;28;44999;-62
2022/05/30 13:55:50;;;;;;;2.33;0.82;;;24.40;40.60;;;;;;4928085;28;45959;-67
2022/05/30 13:58:16;;;;;;;1.13;0.65;;;24.40;40.60;;;;;;4932327;28;45009;-60
2022/05/30 14:00:42;;;;;;;3.33;1.20;;;24.40;40.60;;;;;;4928360;28;45291;-58
2022/05/30 14:03:08;;;;;;;1.23;0.70;;;24.40;40.60;;;;;;4912896;28;44902;-63
2022/05/30 14:05:40;;;;;;;4.53;0.88;;;24.40;40.50;;;;;;4925527;28;45954;-61
2022/05/30 14:08:37;;;;;;;0.65;0.50;;;24.40;40.50;;;;;;4948281;28;44768;-65
2022/05/30 14:11:06;;;;;;;3.03;0.75;;;24.40;40.50;;;;;;4924610;28;45366;-62
2022/05/30 14:13:36;;;;;;;5.03;0.70;;;24.40;41.20;;;;;;4929071;28;45083;-60
2022/05/30 14:16:04;;;;;;;1.00;0.80;;;24.40;40.60;;;;;;4946067;28;45292;-61
2022/05/30 14:18:47;;;;;;;0.95;0.75;;;24.40;40.60;;;;;;4936723;28;44914;-65
2022/05/30 14:21:21;;;;;;;1.33;0.70;;;24.40;40.60;;;;;;4930442;28;45062;-58
2022/05/30 14:23:47;;;;;;;0.88;0.60;;;24.40;40.60;;;;;;4934846;28;45153;-62
2022/05/30 14:26:24;;;;;;;1.65;0.85;;;24.40;40.70;;;;;;4912066;28;45433;-62
2022/05/30 14:28:58;;;;;;;0.70;0.65;;;24.40;40.70;;;;;;4927486;28;45074;-65
2022/05/30 14:31:23;;;;;;;2.88;0.50;;;24.40;40.70;;;;;;4929288;28;44957;-62
2022/05/30 14:33:58;;;;;;;3.45;0.98;;;24.40;40.70;;;;;;4926543;28;45290;-60
2022/05/30 14:36:47;;;;;;;4.32;0.70;;;24.40;40.60;;;;;;4942248;28;45966;-59
2022/05/30 14:39:24;;;;;;;1.20;0.60;;;24.40;40.50;;;;;;4941364;28;45229;-60
2022/05/30 14:42:05;;;;;;;2.95;0.63;;;24.40;40.60;;;;;;4914591;28;45006;-61
2022/05/30 14:44:38;;;;;;;1.45;0.88;;;24.40;40.50;;;;;;4929817;28;45484;-60
2022/05/30 14:47:07;;;;;;;1.08;0.80;;;24.40;40.60;;;;;;4945480;28;45987;-60
2022/05/30 14:49:33;;;;;;;1.65;0.70;;;24.40;40.60;;;;;;4944577;28;45103;-61
2022/05/30 14:52:02;;;;;;;1.20;0.60;;;24.40;40.50;;;;;;4918264;28;44783;-60
2022/05/30 14:54:46;;;;;;;1.40;0.80;;;24.40;40.60;;;;;;4932572;28;46274;-62
2022/05/30 14:57:24;;;;;;;1.95;0.82;;;24.40;40.50;;;;;;4926827;28;45273;-62
2022/05/30 14:59:50;;;;;;;0.95;0.70;;;24.40;40.50;;;;;;4925008;28;45139;-65
2022/05/30 15:05:03;;;;;;;1.98;0.85;;;24.40;40.50;;;;;;4941610;28;45712;-64
2022/05/30 15:07:41;;;;;;;1.35;0.77;;;24.40;40.60;;;;;;4934017;28;45005;-63
2022/05/30 15:10:07;;;;;;;0.77;0.65;;;24.30;40.30;;;;;;4923854;28;44737;-62
2022/05/30 15:12:32;;;;;;;2.47;0.70;;;24.30;40.50;;;;;;4940908;28;45226;-63
2022/05/30 15:14:58;;;;;;;1.45;0.57;;;24.30;40.50;;;;;;4941722;28;45498;-62
2022/05/30 15:17:23;;;;;;;1.10;0.80;;;24.30;40.60;;;;;;4937923;28;46182;-63
2022/05/30 15:19:53;;;;;;;2.58;0.60;;;24.30;40.60;;;;;;4949853;28;44973;-62
2022/05/30 15:22:18;;;;;;;0.95;0.70;;;24.30;40.60;;;;;;4941996;28;44970;-63
2022/05/30 15:24:53;;;;;;;2.97;0.70;;;24.30;40.60;;;;;;4929234;28;45120;-60
2022/05/30 15:27:19;;;;;;;0.60;0.50;;;24.30;40.50;;;;;;4927762;28;45575;-66
2022/05/30 15:29:45;;;;;;;2.35;0.80;;;24.30;40.60;;;;;;4947882;28;44931;-62
2022/05/30 15:32:25;;;;;;;1.13;0.52;;;24.30;40.60;;;;;;4926675;28;45032;-61
2022/05/30 15:34:51;;;;;;;1.42;0.60;;;24.30;40.60;;;;;;4930796;28;44723;-63
2022/05/30 15:37:18;;;;;;;0.70;0.70;;;24.20;40.50;;;;;;4943785;28;45689;-62
2022/05/30 15:39:45;;;;;;;2.60;0.80;;;24.20;40.60;;;;;;4943517;28;45084;-66
2022/05/30 15:42:11;;;;;;;1.48;0.95;;;24.20;40.60;;;;;;4945049;28;45424;-61
2022/05/30 15:44:41;;;;;;;1.02;0.52;;;24.20;40.50;;;;;;4932164;28;45335;-67
2022/05/30 15:47:08;;;;;;;1.73;0.77;;;24.20;40.50;;;;;;4947901;28;46206;-64
2022/05/30 15:49:33;;;;;;;1.10;0.70;;;24.20;40.50;;;;;;4947310;28;44934;-64
2022/05/30 15:52:02;;;;;;;0.95;0.63;;;24.20;40.50;;;;;;4916161;28;44846;-61
2022/05/30 15:57:19;;;;;;;0.60;0.60;;;24.30;40.50;;;;;;4933938;28;45983;-63
2022/05/30 15:59:55;;;;;;;0.98;0.60;;;24.30;40.50;;;;;;4930263;28;45248;-62
2022/05/30 16:02:22;;;;;;;1.00;0.50;;;24.20;40.40;;;;;;4948225;28;45110;-64
2022/05/30 16:04:47;;;;;;;2.53;0.70;;;24.20;40.40;;;;;;4948446;28;44670;-65
2022/05/30 16:07:14;;;;;;;2.33;0.60;;;24.20;40.40;;;;;;4944140;28;46071;-63
2022/05/30 16:09:43;;;;;;;2.10;0.90;;;24.20;40.40;;;;;;4934702;28;45081;-64
2022/05/30 16:12:09;;;;;;;2.00;0.75;;;24.20;40.40;;;;;;4932386;28;45139;-64
2022/05/30 16:14:35;;;;;;;1.10;0.65;;;24.20;40.50;;;;;;4941318;28;45041;-60
2022/05/30 16:17:02;;;;;;;0.73;0.55;;;24.20;40.50;;;;;;4943789;28;45839;-65
2022/05/30 16:19:27;;;;;;;1.13;0.70;;;24.20;40.50;;;;;;4941753;28;45168;-68
2022/05/30 16:21:55;;;;;;;1.13;0.60;;;24.20;40.50;;;;;;4940578;28;44982;-64
2022/05/30 16:24:21;;;;;;;1.17;0.80;;;24.20;40.50;;;;;;4948134;28;44687;-66
2022/05/30 16:26:48;;;;;;;1.13;0.60;;;24.20;40.50;;;;;;4932106;28;46064;-65
2022/05/30 16:29:13;;;;;;;2.08;0.80;;;24.20;40.50;;;;;;4914521;28;44962;-66
2022/05/30 16:31:39;;;;;;;0.70;0.70;;;24.20;40.50;;;;;;4943131;28;45179;-70
2022/05/30 16:34:05;;;;;;;0.68;0.68;;;24.20;40.60;;;;;;4949000;28;44708;-63
2022/05/30 16:36:42;;;;;;;1.05;0.80;;;24.10;40.60;;;;;;4943673;28;45247;-66
2022/05/30 16:39:07;;;;;;;2.50;0.65;;;24.10;40.50;;;;;;4924024;28;44987;-64
2022/05/30 16:41:33;;;;;;;0.77;0.77;;;24.10;40.60;;;;;;4942657;28;45210;-64